Time;durP1;ratioP1;P1;durP2;ratioP2;P2;SDS_P1;SDS_P2;PMS_P1;PMS_P2;Temp;Humidity;BMP_temperature;BMP_pressure;BME280_temperature;BME280_humidity;BME280_pressure;Samples;Min_cycle;Max_cycle;Signal;HPM_P1;HPM_P2
2021/07/06 00:00:28;;;;;;;5.97;2.22;;;;;;;;;;6226650;23;20167;-87
2021/07/06 00:03:33;;;;;;;7.80;2.60;;;;;;;;;;6207870;23;20163;-88
2021/07/06 00:06:38;;;;;;;4.47;2.03;;;;;;;;;;6208815;23;20661;-88
2021/07/06 00:09:45;;;;;;;4.85;2.20;;;;;;;;;;6225560;23;20244;-88
2021/07/06 00:12:50;;;;;;;6.43;2.10;;;;;;;;;;6208711;23;20178;-89
2021/07/06 00:15:56;;;;;;;5.90;2.40;;;;;;;;;;6208603;23;20167;-88
2021/07/06 00:19:02;;;;;;;2.60;1.83;;;;;;;;;;6208422;23;20198;-89
2021/07/06 00:22:09;;;;;;;8.43;2.00;;;;;;;;;;6208625;23;20279;-86
2021/07/06 00:25:16;;;;;;;3.13;1.67;;;;;;;;;;6208996;23;20170;-89
2021/07/06 00:28:23;;;;;;;4.18;1.58;;;;;;;;;;6209960;23;20246;-88
2021/07/06 00:31:27;;;;;;;7.68;1.80;;;;;;;;;;6207838;23;20633;-88
2021/07/06 00:34:32;;;;;;;3.08;1.98;;;;;;;;;;6207696;23;20190;-87
2021/07/06 00:37:40;;;;;;;7.47;1.95;;;;;;;;;;6206740;23;20171;-88
2021/07/06 00:40:46;;;;;;;5.20;1.95;;;;;;;;;;6207559;23;20167;-88
2021/07/06 00:43:51;;;;;;;8.75;2.15;;;;;;;;;;6208261;23;20187;-88
2021/07/06 00:46:58;;;;;;;5.28;2.05;;;;;;;;;;6208511;23;20170;-88
2021/07/06 00:50:05;;;;;;;5.50;1.90;;;;;;;;;;6206958;23;20241;-87
2021/07/06 00:53:10;;;;;;;3.40;2.00;;;;;;;;;;6208035;23;20191;-87
2021/07/06 00:56:16;;;;;;;7.53;2.08;;;;;;;;;;6207989;23;20221;-88
2021/07/06 00:59:21;;;;;;;5.63;2.13;;;;;;;;;;6208314;23;20163;-88
2021/07/06 01:02:27;;;;;;;6.10;1.85;;;;;;;;;;6207349;23;20242;-88
2021/07/06 01:05:32;;;;;;;6.22;2.10;;;;;;;;;;6207117;23;20171;-88
2021/07/06 01:08:38;;;;;;;7.55;1.98;;;;;;;;;;6207048;23;20159;-88
2021/07/06 01:11:45;;;;;;;12.80;2.45;;;;;;;;;;6207865;23;20191;-88
2021/07/06 01:14:49;;;;;;;6.03;2.03;;;;;;;;;;6206879;23;20171;-88
2021/07/06 01:18:06;;;;;;;3.45;1.80;;;;;;;;;;6207114;23;20167;-88
2021/07/06 01:21:10;;;;;;;8.73;2.55;;;;;;;;;;6206300;23;20294;-88
2021/07/06 01:24:16;;;;;;;6.32;2.17;;;;;;;;;;6206356;23;20187;-88
2021/07/06 01:27:22;;;;;;;3.13;2.10;;;;;;;;;;6206774;23;20155;-88
2021/07/06 01:30:26;;;;;;;11.38;2.42;;;;;;;;;;6206030;23;20167;-88
2021/07/06 01:33:32;;;;;;;4.80;2.08;;;;;;;;;;6207507;23;20242;-87
2021/07/06 01:36:38;;;;;;;4.72;2.28;;;;;;;;;;6207290;23;20167;-88
2021/07/06 01:39:44;;;;;;;6.45;2.20;;;;;;;;;;6206694;23;20179;-86
2021/07/06 01:42:53;;;;;;;7.00;2.35;;;;;;;;;;6205707;23;20365;-88
2021/07/06 01:45:59;;;;;;;6.40;2.65;;;;;;;;;;6189192;23;20171;-88
2021/07/06 01:49:04;;;;;;;5.28;2.50;;;;;;;;;;6224706;23;20170;-87
2021/07/06 01:52:09;;;;;;;8.95;3.85;;;;;;;;;;6207260;23;20777;-87
2021/07/06 01:55:16;;;;;;;7.38;2.67;;;;;;;;;;6207172;23;20190;-88
2021/07/06 01:58:25;;;;;;;8.32;2.60;;;;;;;;;;6206198;23;20295;-87
2021/07/06 02:01:31;;;;;;;14.48;2.60;;;;;;;;;;6207766;23;20171;-88
2021/07/06 02:04:36;;;;;;;8.68;2.63;;;;;;;;;;6226412;23;20170;-88
2021/07/06 02:07:41;;;;;;;6.22;2.50;;;;;;;;;;6208062;23;20441;-89
2021/07/06 02:10:48;;;;;;;6.75;2.60;;;;;;;;;;6225178;23;20170;-88
2021/07/06 02:13:54;;;;;;;6.75;2.25;;;;;;;;;;6207828;23;20468;-88
2021/07/06 02:17:02;;;;;;;3.97;2.20;;;;;;;;;;6207281;23;20175;-88
2021/07/06 02:20:09;;;;;;;10.55;2.40;;;;;;;;;;6207881;23;20167;-88
2021/07/06 02:23:16;;;;;;;4.78;2.15;;;;;;;;;;6206295;23;20167;-88
2021/07/06 02:26:22;;;;;;;6.57;2.40;;;;;;;;;;6204883;23;20219;-89
2021/07/06 02:29:27;;;;;;;5.93;2.40;;;;;;;;;;6207017;23;20171;-87
2021/07/06 02:32:35;;;;;;;5.60;2.30;;;;;;;;;;6205414;23;20263;-87
2021/07/06 02:35:40;;;;;;;6.80;2.60;;;;;;;;;;6225058;23;20175;-88
2021/07/06 02:38:45;;;;;;;4.55;2.40;;;;;;;;;;6206365;23;20635;-88
2021/07/06 02:41:51;;;;;;;7.32;2.20;;;;;;;;;;6206662;23;20171;-87
2021/07/06 02:44:56;;;;;;;5.57;2.20;;;;;;;;;;6205505;23;20510;-88
2021/07/06 02:48:02;;;;;;;5.75;2.25;;;;;;;;;;6206582;23;20163;-89
2021/07/06 02:51:07;;;;;;;3.28;2.10;;;;;;;;;;6205502;23;20171;-88
2021/07/06 02:54:12;;;;;;;5.25;2.30;;;;;;;;;;6206446;23;20206;-88
2021/07/06 03:00:39;;;;;;;4.55;2.25;;;;;;;;;;6205520;23;20174;-87
2021/07/06 03:03:44;;;;;;;5.55;2.30;;;;;;;;;;6205058;23;20237;-87
2021/07/06 03:06:49;;;;;;;8.70;2.78;;;;;;;;;;6204480;23;20171;-88
2021/07/06 03:09:54;;;;;;;5.97;2.67;;;;;;;;;;6205256;23;20221;-88
2021/07/06 03:13:16;;;;;;;4.35;2.35;;;;;;;;;;6206201;23;20472;-87
2021/07/06 03:16:23;;;;;;;9.25;2.35;;;;;;;;;;6226082;23;20155;-89
2021/07/06 03:19:28;;;;;;;3.70;1.95;;;;;;;;;;6208095;23;20281;-87
2021/07/06 03:22:35;;;;;;;4.38;2.03;;;;;;;;;;6206557;23;20199;-86
2021/07/06 03:25:41;;;;;;;3.88;2.00;;;;;;;;;;6207927;23;20174;-87
2021/07/06 03:28:45;;;;;;;4.03;2.30;;;;;;;;;;6206425;23;20226;-88
2021/07/06 03:31:51;;;;;;;5.00;2.33;;;;;;;;;;6210090;23;20190;-88
2021/07/06 03:34:57;;;;;;;4.65;2.50;;;;;;;;;;6209403;23;20174;-88
2021/07/06 03:38:03;;;;;;;5.10;2.33;;;;;;;;;;6208265;23;20187;-87
2021/07/06 03:41:08;;;;;;;6.85;2.42;;;;;;;;;;6208700;23;20219;-88
2021/07/06 03:44:15;;;;;;;5.50;2.20;;;;;;;;;;6208899;23;20199;-88
2021/07/06 03:47:21;;;;;;;6.43;2.10;;;;;;;;;;6209067;23;20587;-87
2021/07/06 03:50:27;;;;;;;9.25;2.28;;;;;;;;;;6208734;23;20646;-88
2021/07/06 03:53:31;;;;;;;4.78;2.00;;;;;;;;;;6211055;23;20238;-88
2021/07/06 03:56:49;;;;;;;5.38;2.35;;;;;;;;;;6210113;23;20510;-88
2021/07/06 03:59:55;;;;;;;5.18;2.25;;;;;;;;;;6210468;23;20255;-88
2021/07/06 04:03:02;;;;;;;9.18;2.35;;;;;;;;;;6211118;23;20194;-88
2021/07/06 04:06:07;;;;;;;10.45;2.47;;;;;;;;;;6210062;23;20222;-88
2021/07/06 04:09:13;;;;;;;4.50;2.28;;;;;;;;;;6209245;23;20167;-88
2021/07/06 04:12:18;;;;;;;3.92;2.05;;;;;;;;;;6210050;23;20151;-88
2021/07/06 04:15:25;;;;;;;6.38;2.42;;;;;;;;;;6210939;23;20231;-88
2021/07/06 04:18:31;;;;;;;9.13;2.20;;;;;;;;;;6211479;23;20266;-88
2021/07/06 04:21:36;;;;;;;7.25;2.08;;;;;;;;;;6210525;23;20179;-89
2021/07/06 04:24:42;;;;;;;8.73;2.10;;;;;;;;;;6212238;23;20207;-86
2021/07/06 04:27:47;;;;;;;10.55;4.60;;;;;;;;;;6212669;23;20179;-88
2021/07/06 04:30:52;;;;;;;5.88;1.98;;;;;;;;;;6210661;23;20253;-87
2021/07/06 04:33:59;;;;;;;3.72;2.03;;;;;;;;;;6211977;23;20163;-88
2021/07/06 04:37:06;;;;;;;4.25;2.10;;;;;;;;;;6215630;23;20172;-88
2021/07/06 04:40:12;;;;;;;3.88;1.75;;;;;;;;;;6212768;23;20194;-88
2021/07/06 04:43:18;;;;;;;3.67;2.00;;;;;;;;;;6211570;23;20191;-87
2021/07/06 04:46:25;;;;;;;7.22;2.10;;;;;;;;;;6212543;23;20166;-87
2021/07/06 04:49:32;;;;;;;6.55;2.20;;;;;;;;;;6211555;23;20222;-88
2021/07/06 04:52:37;;;;;;;7.00;2.10;;;;;;;;;;6212412;23;20164;-88
2021/07/06 04:55:42;;;;;;;3.55;2.20;;;;;;;;;;6211775;22;20215;-88
2021/07/06 04:58:47;;;;;;;9.32;1.80;;;;;;;;;;6211516;23;20232;-88
2021/07/06 05:01:55;;;;;;;7.40;2.20;;;;;;;;;;6210288;23;20166;-88
2021/07/06 05:05:09;;;;;;;5.38;1.95;;;;;;;;;;6211615;23;20219;-87
2021/07/06 05:08:16;;;;;;;6.38;2.38;;;;;;;;;;6211561;23;20220;-85
2021/07/06 05:11:21;;;;;;;5.50;2.00;;;;;;;;;;6217829;23;20166;-87
2021/07/06 05:14:26;;;;;;;8.98;2.40;;;;;;;;;;6211542;23;20179;-87
2021/07/06 05:17:31;;;;;;;4.10;1.80;;;;;;;;;;6211547;23;20287;-86
2021/07/06 05:20:39;;;;;;;4.95;1.90;;;;;;;;;;6212138;23;20191;-89
2021/07/06 05:23:44;;;;;;;5.18;2.17;;;;;;;;;;6209403;23;20277;-88
2021/07/06 05:26:51;;;;;;;6.72;1.80;;;;;;;;;;6209547;23;20167;-88
2021/07/06 05:29:56;;;;;;;2.20;1.50;;;;;;;;;;6210090;23;20175;-89
2021/07/06 05:33:01;;;;;;;2.92;1.65;;;;;;;;;;6209379;23;20194;-88
2021/07/06 05:36:07;;;;;;;10.52;2.30;;;;;;;;;;6210293;23;20168;-87
2021/07/06 05:39:13;;;;;;;4.00;1.60;;;;;;;;;;6211248;23;20171;-88
2021/07/06 05:42:20;;;;;;;4.80;1.65;;;;;;;;;;6210052;23;20167;-89
2021/07/06 05:45:27;;;;;;;2.85;1.50;;;;;;;;;;6210955;23;20163;-88
2021/07/06 05:48:33;;;;;;;2.13;1.80;;;;;;;;;;6212116;23;20210;-87
2021/07/06 05:51:40;;;;;;;4.80;1.80;;;;;;;;;;6208823;23;20191;-87
2021/07/06 05:54:45;;;;;;;3.80;1.65;;;;;;;;;;6209060;22;20210;-88
2021/07/06 05:57:50;;;;;;;5.00;1.73;;;;;;;;;;6209076;23;20492;-88
2021/07/06 06:00:54;;;;;;;3.75;2.20;;;;;;;;;;6207207;23;20606;-87
2021/07/06 06:04:00;;;;;;;4.20;1.90;;;;;;;;;;6208540;23;20259;-87
2021/07/06 06:07:07;;;;;;;3.42;1.55;;;;;;;;;;6228540;23;20170;-88
2021/07/06 06:10:21;;;;;;;3.80;1.50;;;;;;;;;;6211859;23;20163;-88
2021/07/06 06:13:27;;;;;;;6.30;1.40;;;;;;;;;;6211911;23;20179;-87
2021/07/06 06:16:32;;;;;;;3.83;1.65;;;;;;;;;;6212119;23;20226;-89
2021/07/06 06:19:40;;;;;;;3.75;1.80;;;;;;;;;;6209776;23;20582;-88
2021/07/06 06:22:46;;;;;;;3.65;1.52;;;;;;;;;;6227669;22;20194;-88
2021/07/06 06:25:51;;;;;;;3.80;1.48;;;;;;;;;;6210290;23;20239;-91
2021/07/06 06:28:56;;;;;;;3.47;1.85;;;;;;;;;;6209427;23;20265;-88
2021/07/06 06:32:01;;;;;;;4.38;1.65;;;;;;;;;;6210224;22;20186;-89
2021/07/06 06:35:09;;;;;;;5.60;2.08;;;;;;;;;;6211144;23;20228;-88
2021/07/06 06:38:15;;;;;;;6.13;2.10;;;;;;;;;;6213906;23;20167;-89
2021/07/06 06:41:21;;;;;;;5.15;1.90;;;;;;;;;;6209893;23;20167;-91
2021/07/06 06:44:28;;;;;;;5.82;1.92;;;;;;;;;;6207844;23;20191;-91
2021/07/06 06:47:34;;;;;;;2.83;1.70;;;;;;;;;;6210305;22;20258;-90
2021/07/06 06:50:40;;;;;;;4.22;1.45;;;;;;;;;;6210079;22;20167;-88
2021/07/06 06:53:47;;;;;;;4.75;1.60;;;;;;;;;;6209964;23;20218;-89
2021/07/06 06:56:53;;;;;;;7.70;1.90;;;;;;;;;;6211027;23;20493;-89
2021/07/06 06:59:59;;;;;;;4.05;1.63;;;;;;;;;;6211939;23;20170;-90
2021/07/06 07:03:04;;;;;;;7.07;1.48;;;;;;;;;;6210207;22;20159;-90
2021/07/06 09:09:23;;;;;;;4.15;1.00;;;;;;;;;;6177930;22;20199;-91
2021/07/06 09:12:34;;;;;;;2.70;0.77;;;;;;;;;;6181024;23;20287;-89
2021/07/06 09:15:39;;;;;;;1.83;0.90;;;;;;;;;;6181631;23;20175;-92
2021/07/06 09:18:48;;;;;;;1.63;0.80;;;;;;;;;;6182943;23;20172;-91
2021/07/06 09:22:10;;;;;;;2.03;0.90;;;;;;;;;;6180738;23;20171;-89
2021/07/06 09:25:16;;;;;;;1.05;0.77;;;;;;;;;;6182932;23;20175;-89
2021/07/06 09:28:24;;;;;;;1.20;0.80;;;;;;;;;;6181960;23;20167;-89
2021/07/06 09:31:31;;;;;;;1.52;0.80;;;;;;;;;;6179030;23;20283;-90
2021/07/06 09:34:36;;;;;;;3.05;0.70;;;;;;;;;;6179091;22;20238;-90
2021/07/06 09:37:49;;;;;;;2.05;0.80;;;;;;;;;;6180850;23;20617;-90
2021/07/06 09:40:59;;;;;;;4.18;1.05;;;;;;;;;;6180191;22;20164;-90
2021/07/06 09:44:21;;;;;;;5.10;0.98;;;;;;;;;;6180978;23;20585;-90
2021/07/06 09:47:28;;;;;;;4.45;1.10;;;;;;;;;;6185426;23;20167;-90
2021/07/06 09:50:33;;;;;;;2.55;0.80;;;;;;;;;;6181875;22;20211;-91
2021/07/06 09:53:39;;;;;;;3.20;0.93;;;;;;;;;;6181934;22;20194;-90
2021/07/06 09:56:45;;;;;;;4.10;1.00;;;;;;;;;;6180573;23;20501;-91
2021/07/06 09:59:54;;;;;;;2.75;1.00;;;;;;;;;;6182277;23;20179;-91
2021/07/06 10:03:01;;;;;;;7.47;1.30;;;;;;;;;;6180829;23;20235;-92
2021/07/06 10:06:07;;;;;;;2.85;0.82;;;;;;;;;;6179675;23;20163;-92
2021/07/06 10:09:12;;;;;;;4.75;1.00;;;;;;;;;;6182001;23;20326;-92
2021/07/06 10:12:22;;;;;;;5.25;1.20;;;;;;;;;;6180219;23;20239;-91
2021/07/06 10:15:27;;;;;;;1.10;0.82;;;;;;;;;;6179910;23;20210;-90
2021/07/06 10:18:32;;;;;;;4.72;1.90;;;;;;;;;;6179369;23;20171;-91
2021/07/06 10:21:38;;;;;;;3.13;0.80;;;;;;;;;;6180087;23;20183;-91
2021/07/06 10:24:44;;;;;;;3.13;0.90;;;;;;;;;;6178874;23;20219;-91
2021/07/06 10:27:53;;;;;;;0.90;0.75;;;;;;;;;;6178254;23;20227;-89
2021/07/06 10:31:14;;;;;;;3.65;0.85;;;;;;;;;;6177648;22;20287;-92
2021/07/06 10:34:20;;;;;;;1.48;0.80;;;;;;;;;;6181854;23;20195;-90
2021/07/06 10:37:29;;;;;;;4.15;1.38;;;;;;;;;;6178406;23;20175;-91
2021/07/06 10:40:44;;;;;;;1.95;0.90;;;;;;;;;;6180714;22;20174;-91
2021/07/06 10:43:56;;;;;;;1.63;1.08;;;;;;;;;;6179331;23;20171;-90
2021/07/06 10:47:01;;;;;;;1.55;0.70;;;;;;;;;;6177667;23;20212;-91
2021/07/06 10:50:25;;;;;;;1.42;0.90;;;;;;;;;;6178770;23;20171;-91
2021/07/06 10:53:31;;;;;;;1.58;0.60;;;;;;;;;;6179899;23;20236;-90
2021/07/06 10:56:37;;;;;;;1.40;0.80;;;;;;;;;;6181590;23;20162;-92
2021/07/06 10:59:43;;;;;;;2.65;0.70;;;;;;;;;;6179988;23;20174;-91
2021/07/06 11:03:09;;;;;;;2.65;1.08;;;;;;;;;;6178667;23;20167;-91
2021/07/06 11:06:29;;;;;;;4.60;0.95;;;;;;;;;;6182579;23;20536;-92
2021/07/06 11:09:49;;;;;;;0.90;0.80;;;;;;;;;;6180692;23;20527;-91
2021/07/06 11:12:57;;;;;;;1.73;0.80;;;;;;;;;;6183373;23;20259;-92
2021/07/06 11:16:04;;;;;;;2.40;0.80;;;;;;;;;;6181646;23;20167;-89
2021/07/06 11:19:24;;;;;;;0.93;0.70;;;;;;;;;;6182337;22;20192;-90
2021/07/06 11:22:43;;;;;;;1.10;0.80;;;;;;;;;;6183140;23;20175;-91
2021/07/06 11:25:50;;;;;;;0.98;0.60;;;;;;;;;;6182411;23;20171;-91
2021/07/06 11:29:02;;;;;;;2.40;0.68;;;;;;;;;;6183428;23;20215;-93
2021/07/06 11:32:15;;;;;;;2.83;0.77;;;;;;;;;;6180708;23;20219;-91
2021/07/06 11:35:23;;;;;;;1.27;0.68;;;;;;;;;;6181133;23;20195;-91
2021/07/06 11:38:40;;;;;;;4.78;0.90;;;;;;;;;;6182792;23;20167;-90
2021/07/06 11:41:45;;;;;;;0.77;0.70;;;;;;;;;;6180775;22;20242;-90
2021/07/06 11:44:54;;;;;;;7.15;0.75;;;;;;;;;;6181199;23;20175;-90
2021/07/06 11:48:14;;;;;;;1.08;0.50;;;;;;;;;;6181617;23;20203;-90
2021/07/06 11:51:20;;;;;;;3.63;0.80;;;;;;;;;;6185653;23;20172;-92
2021/07/06 11:54:25;;;;;;;1.25;0.80;;;;;;;;;;6185586;23;20195;-90
2021/07/06 11:57:31;;;;;;;1.77;0.80;;;;;;;;;;6184607;23;20163;-91
2021/07/06 12:00:37;;;;;;;1.27;0.70;;;;;;;;;;6184099;23;20167;-90
2021/07/06 12:03:47;;;;;;;1.38;0.70;;;;;;;;;;6183374;23;20154;-91
2021/07/06 12:07:02;;;;;;;0.70;0.60;;;;;;;;;;6185585;23;20227;-91
2021/07/06 12:10:28;;;;;;;2.55;0.60;;;;;;;;;;6179834;23;20245;-91
2021/07/06 12:13:36;;;;;;;0.90;0.60;;;;;;;;;;6182711;23;20171;-90
2021/07/06 12:16:41;;;;;;;1.75;0.60;;;;;;;;;;6180525;23;20230;-90
2021/07/06 12:19:47;;;;;;;2.88;0.85;;;;;;;;;;6182076;23;20186;-92
2021/07/06 12:22:59;;;;;;;1.10;0.70;;;;;;;;;;6181910;23;20187;-91
2021/07/06 12:26:04;;;;;;;1.80;0.70;;;;;;;;;;6182113;23;20158;-91
2021/07/06 12:29:13;;;;;;;1.08;0.90;;;;;;;;;;6181841;23;20175;-91
2021/07/06 12:32:20;;;;;;;1.85;0.90;;;;;;;;;;6181834;22;20171;-90
2021/07/06 12:35:27;;;;;;;1.85;0.70;;;;;;;;;;6181333;23;20497;-92
2021/07/06 12:38:33;;;;;;;2.75;0.60;;;;;;;;;;6180811;23;20160;-91
2021/07/06 12:41:40;;;;;;;0.95;0.70;;;;;;;;;;6181266;23;20171;-91
2021/07/06 12:44:47;;;;;;;0.77;0.60;;;;;;;;;;6182469;23;20195;-89
2021/07/06 12:47:51;;;;;;;3.13;0.80;;;;;;;;;;6182443;23;20163;-91
2021/07/06 12:51:10;;;;;;;0.82;0.50;;;;;;;;;;6186540;23;20160;-90
2021/07/06 12:54:31;;;;;;;0.50;0.40;;;;;;;;;;6181650;23;20203;-89
2021/07/06 12:57:36;;;;;;;2.13;0.70;;;;;;;;;;6182565;23;20171;-92
2021/07/06 13:00:42;;;;;;;1.27;0.73;;;;;;;;;;6181365;23;20171;-93
2021/07/06 13:03:54;;;;;;;0.85;0.63;;;;;;;;;;6184473;23;20258;-90
2021/07/06 13:07:07;;;;;;;2.22;0.73;;;;;;;;;;6183547;23;20172;-89
2021/07/06 13:10:16;;;;;;;2.03;0.88;;;;;;;;;;6182359;23;20194;-91
2021/07/06 13:13:25;;;;;;;1.08;0.50;;;;;;;;;;6182584;23;20464;-91
2021/07/06 13:16:31;;;;;;;1.98;0.50;;;;;;;;;;6181826;23;20492;-90
2021/07/06 13:19:41;;;;;;;2.88;0.90;;;;;;;;;;6182343;23;20159;-90
2021/07/06 13:22:48;;;;;;;2.70;0.60;;;;;;;;;;6181945;22;20231;-91
2021/07/06 13:25:54;;;;;;;2.40;0.60;;;;;;;;;;6181925;23;20171;-90
2021/07/06 13:29:01;;;;;;;0.80;0.60;;;;;;;;;;6181448;23;20186;-92
2021/07/06 13:32:06;;;;;;;0.80;0.60;;;;;;;;;;6181476;23;20174;-92
2021/07/06 13:35:12;;;;;;;3.67;0.60;;;;;;;;;;6181663;23;20283;-92
2021/07/06 13:38:24;;;;;;;0.60;0.60;;;;;;;;;;6181838;23;20218;-90
2021/07/06 13:41:29;;;;;;;0.55;0.50;;;;;;;;;;6181496;23;20175;-91
2021/07/06 13:44:37;;;;;;;0.63;0.60;;;;;;;;;;6183753;23;20167;-92
2021/07/06 13:47:51;;;;;;;0.88;0.52;;;;;;;;;;6183441;23;20179;-91
2021/07/06 13:50:56;;;;;;;0.40;0.40;;;;;;;;;;6183740;23;20167;-91
2021/07/06 13:54:07;;;;;;;0.43;0.40;;;;;;;;;;6183066;23;20211;-89
2021/07/06 13:57:16;;;;;;;0.70;0.43;;;;;;;;;;6181706;23;20175;-90
2021/07/06 14:00:22;;;;;;;0.30;0.30;;;;;;;;;;6181367;23;20194;-92
2021/07/06 14:03:30;;;;;;;0.98;0.88;;;;;;;;;;6182765;23;20179;-89
2021/07/06 14:06:38;;;;;;;1.17;1.02;;;;;;;;;;6182171;23;20164;-91
2021/07/06 14:17:33;;;;;;;0.50;0.40;;;;;;;;;;6210516;22;20167;-91
2021/07/06 14:24:33;;;;;;;1.05;0.50;;;;;;;;;;6195684;23;20219;-88
2021/07/06 14:27:39;;;;;;;1.20;0.57;;;;;;;;;;6182557;23;20662;-90
2021/07/06 14:30:45;;;;;;;3.05;0.60;;;;;;;;;;6185113;23;20245;-89
2021/07/06 14:33:51;;;;;;;0.50;0.40;;;;;;;;;;6184485;23;20174;-88
2021/07/06 14:36:57;;;;;;;1.85;0.75;;;;;;;;;;6203589;23;20163;-90
2021/07/06 14:40:03;;;;;;;2.83;0.90;;;;;;;;;;6183923;23;20174;-90
2021/07/06 14:43:14;;;;;;;0.77;0.50;;;;;;;;;;6184384;23;20168;-92
2021/07/06 14:46:20;;;;;;;0.40;0.40;;;;;;;;;;6183248;23;20171;-90
2021/07/06 14:49:27;;;;;;;0.77;0.50;;;;;;;;;;6182691;23;20163;-91
2021/07/06 14:52:33;;;;;;;0.80;0.50;;;;;;;;;;6184247;23;20175;-90
2021/07/06 14:55:39;;;;;;;1.15;0.55;;;;;;;;;;6181967;23;20210;-90
2021/07/06 14:58:44;;;;;;;0.77;0.50;;;;;;;;;;6182007;23;20167;-90
2021/07/06 15:01:50;;;;;;;1.30;0.43;;;;;;;;;;6166093;22;20179;-91
2021/07/06 15:04:57;;;;;;;2.63;0.63;;;;;;;;;;6185180;23;20166;-90
2021/07/06 15:08:03;;;;;;;0.50;0.50;;;;;;;;;;6183148;23;20482;-90
2021/07/06 15:11:08;;;;;;;0.63;0.60;;;;;;;;;;6181461;23;20167;-91
2021/07/06 15:14:13;;;;;;;2.72;0.50;;;;;;;;;;6183064;23;20155;-90
2021/07/06 15:17:18;;;;;;;3.10;0.63;;;;;;;;;;6185960;23;20174;-91
2021/07/06 15:20:26;;;;;;;1.83;0.40;;;;;;;;;;6186022;22;20223;-90
2021/07/06 15:23:33;;;;;;;0.57;0.50;;;;;;;;;;6182726;23;20170;-90
2021/07/06 15:26:38;;;;;;;1.10;0.73;;;;;;;;;;6185249;23;20284;-90
2021/07/06 15:29:45;;;;;;;5.72;0.45;;;;;;;;;;6183528;22;20546;-91
2021/07/06 15:32:51;;;;;;;1.30;0.50;;;;;;;;;;6182988;23;20178;-92
2021/07/06 15:36:02;;;;;;;1.35;0.70;;;;;;;;;;6185091;23;20228;-90
2021/07/06 15:39:07;;;;;;;1.95;0.77;;;;;;;;;;6184992;23;20179;-91
2021/07/06 15:42:12;;;;;;;1.38;0.60;;;;;;;;;;6184218;23;20191;-90
2021/07/06 15:45:18;;;;;;;0.60;0.52;;;;;;;;;;6184838;23;20203;-90
2021/07/06 15:48:23;;;;;;;1.17;0.60;;;;;;;;;;6181965;22;20171;-91
2021/07/06 15:51:30;;;;;;;1.60;1.13;;;;;;;;;;6183507;23;20160;-90
2021/07/06 15:54:35;;;;;;;1.30;0.80;;;;;;;;;;6186397;22;20183;-90
2021/07/06 15:57:40;;;;;;;1.48;0.50;;;;;;;;;;6184857;23;20175;-89
2021/07/06 16:00:45;;;;;;;7.82;5.25;;;;;;;;;;6184285;23;20219;-90
2021/07/06 16:03:51;;;;;;;3.35;1.05;;;;;;;;;;6183834;22;20167;-90
2021/07/06 16:07:00;;;;;;;0.88;0.50;;;;;;;;;;6186872;23;20176;-90
2021/07/06 16:10:07;;;;;;;1.40;0.50;;;;;;;;;;6186381;22;20231;-91
2021/07/06 16:13:16;;;;;;;0.90;0.50;;;;;;;;;;6188261;23;20202;-91
2021/07/06 16:16:25;;;;;;;1.17;0.50;;;;;;;;;;6183443;23;20206;-91
2021/07/06 16:22:52;;;;;;;0.47;0.40;;;;;;;;;;6190268;23;20184;-90
2021/07/06 16:25:59;;;;;;;1.95;0.65;;;;;;;;;;6183650;23;20175;-91
2021/07/06 16:29:04;;;;;;;1.17;0.73;;;;;;;;;;6183828;23;20160;-91
2021/07/06 16:32:13;;;;;;;5.03;0.60;;;;;;;;;;6185236;22;20167;-90
2021/07/06 16:35:19;;;;;;;2.92;1.10;;;;;;;;;;6185053;23;20182;-90
2021/07/06 16:38:26;;;;;;;0.80;0.60;;;;;;;;;;6183073;23;20231;-90
2021/07/06 16:41:35;;;;;;;1.40;0.70;;;;;;;;;;6184965;23;20175;-89
2021/07/06 16:44:40;;;;;;;1.45;0.70;;;;;;;;;;6184574;22;20152;-90
2021/07/06 16:47:46;;;;;;;1.98;0.65;;;;;;;;;;6184140;23;20152;-90
2021/07/06 17:59:25;;;;;;;5.00;1.33;;;;;;;;;;5919149;23;20233;-90
2021/07/06 18:06:01;;;;;;;2.72;1.70;;;;;;;;;;6092462;23;20170;-91
2021/07/06 18:09:09;;;;;;;3.67;1.30;;;;;;;;;;6105928;23;20195;-89
2021/07/06 18:12:15;;;;;;;3.00;1.48;;;;;;;;;;6197653;23;20766;-90
2021/07/06 18:15:20;;;;;;;2.15;1.67;;;;;;;;;;6198610;23;20270;-90
2021/07/06 18:18:26;;;;;;;7.30;2.10;;;;;;;;;;6197393;23;20195;-91
2021/07/06 18:21:32;;;;;;;3.15;2.20;;;;;;;;;;6197772;23;20167;-91
2021/07/06 18:24:41;;;;;;;6.32;2.70;;;;;;;;;;6198182;23;20167;-91
2021/07/06 18:27:50;;;;;;;8.93;2.83;;;;;;;;;;6200769;23;20622;-90
2021/07/06 18:30:55;;;;;;;5.47;2.50;;;;;;;;;;6198858;23;20278;-90
2021/07/06 18:34:10;;;;;;;5.15;2.50;;;;;;;;;;6200424;23;20155;-90
2021/07/06 18:37:15;;;;;;;4.30;1.80;;;;;;;;;;6200347;23;20211;-90
2021/07/06 18:40:24;;;;;;;3.15;1.35;;;;;;;;;;6199379;23;20243;-91
2021/07/06 18:43:30;;;;;;;3.83;1.40;;;;;;;;;;6198981;23;20172;-90
2021/07/06 18:46:37;;;;;;;12.40;2.30;;;;;;;;;;6199377;23;20599;-88
2021/07/06 18:49:46;;;;;;;4.13;1.40;;;;;;;;;;6199826;23;20171;-90
2021/07/06 18:52:54;;;;;;;4.07;1.50;;;;;;;;;;6198938;23;20212;-90
2021/07/06 18:56:02;;;;;;;5.18;1.70;;;;;;;;;;6199678;23;20175;-90
2021/07/06 18:59:07;;;;;;;3.10;1.55;;;;;;;;;;6200450;23;20163;-90
2021/07/06 19:02:28;;;;;;;10.05;2.47;;;;;;;;;;6200958;23;20186;-90
2021/07/06 19:05:38;;;;;;;6.35;1.55;;;;;;;;;;6198261;23;20187;-89
2021/07/06 19:08:43;;;;;;;2.83;1.50;;;;;;;;;;6198618;23;20524;-90
2021/07/06 19:11:48;;;;;;;2.30;1.20;;;;;;;;;;6181870;23;20603;-90
2021/07/06 19:14:54;;;;;;;6.60;1.60;;;;;;;;;;6182513;23;20159;-90
2021/07/06 19:18:01;;;;;;;7.75;1.55;;;;;;;;;;6181802;23;20168;-90
2021/07/06 19:21:09;;;;;;;2.63;1.20;;;;;;;;;;6183007;23;20175;-89
2021/07/06 19:27:49;;;;;;;6.13;1.08;;;;;;;;;;6182262;23;20164;-89
2021/07/06 19:34:17;;;;;;;4.78;1.33;;;;;;;;;;6184633;23;20175;-90
2021/07/06 19:37:24;;;;;;;4.25;1.50;;;;;;;;;;6183802;23;20199;-90
2021/07/06 19:40:30;;;;;;;5.05;1.30;;;;;;;;;;6182926;23;20168;-89
2021/07/06 19:43:35;;;;;;;5.15;1.17;;;;;;;;;;6184269;22;20151;-89
2021/07/06 19:46:41;;;;;;;4.47;1.40;;;;;;;;;;6183482;23;20200;-90
2021/07/06 19:49:46;;;;;;;4.60;1.38;;;;;;;;;;6185171;22;20156;-90
2021/07/06 19:52:54;;;;;;;2.75;1.50;;;;;;;;;;6185519;22;20172;-90
2021/07/06 19:56:00;;;;;;;7.07;1.50;;;;;;;;;;6183744;23;20196;-90
2021/07/06 19:59:05;;;;;;;8.90;1.98;;;;;;;;;;6181958;23;20167;-91
2021/07/06 20:02:10;;;;;;;5.35;2.35;;;;;;;;;;6183993;23;20163;-90
2021/07/06 20:05:15;;;;;;;7.68;1.63;;;;;;;;;;6183815;23;20175;-91
2021/07/06 20:08:27;;;;;;;3.13;1.40;;;;;;;;;;6184199;23;20167;-91
2021/07/06 20:11:34;;;;;;;3.83;1.58;;;;;;;;;;6185698;23;20223;-90
2021/07/06 20:14:39;;;;;;;4.70;2.15;;;;;;;;;;6187503;23;20183;-89
2021/07/06 20:17:45;;;;;;;5.53;1.50;;;;;;;;;;6185364;23;20973;-90
2021/07/06 20:20:52;;;;;;;5.43;1.30;;;;;;;;;;6186541;23;20156;-90
2021/07/06 20:23:59;;;;;;;3.15;1.33;;;;;;;;;;6185173;23;20172;-89
2021/07/06 20:27:06;;;;;;;3.03;1.40;;;;;;;;;;6185158;23;20176;-89
2021/07/06 20:30:12;;;;;;;6.15;1.27;;;;;;;;;;6185389;23;20172;-89
2021/07/06 20:33:19;;;;;;;5.50;1.17;;;;;;;;;;6184464;22;20225;-90
2021/07/06 20:36:25;;;;;;;4.78;1.10;;;;;;;;;;6184681;23;20196;-89
2021/07/06 20:39:33;;;;;;;2.53;1.30;;;;;;;;;;6185568;23;20160;-90
2021/07/06 20:42:38;;;;;;;2.20;1.27;;;;;;;;;;6183639;23;20203;-90
2021/07/06 20:45:42;;;;;;;3.40;1.17;;;;;;;;;;6182560;23;20341;-89
2021/07/06 20:48:49;;;;;;;2.28;1.15;;;;;;;;;;6183780;23;20240;-91
2021/07/06 20:51:56;;;;;;;3.65;1.38;;;;;;;;;;6183824;22;20156;-89
2021/07/06 20:55:03;;;;;;;6.25;1.60;;;;;;;;;;6184649;23;20151;-90
2021/07/06 20:58:18;;;;;;;2.45;1.10;;;;;;;;;;6183466;23;20315;-92
2021/07/06 21:01:25;;;;;;;4.35;1.08;;;;;;;;;;6184466;23;20172;-90
2021/07/06 21:04:34;;;;;;;2.00;1.13;;;;;;;;;;6183785;23;20472;-90
2021/07/06 21:07:43;;;;;;;2.88;1.40;;;;;;;;;;6186263;23;20172;-90
2021/07/06 21:10:51;;;;;;;3.13;1.20;;;;;;;;;;6185801;22;20167;-90
2021/07/06 21:13:57;;;;;;;10.73;1.45;;;;;;;;;;6185681;23;20215;-90
2021/07/06 21:17:02;;;;;;;4.95;1.50;;;;;;;;;;6184527;23;20195;-90
2021/07/06 21:20:09;;;;;;;7.47;1.70;;;;;;;;;;6184804;23;20228;-90
2021/07/06 21:23:14;;;;;;;3.67;1.40;;;;;;;;;;6184958;23;20167;-90
2021/07/06 21:26:22;;;;;;;4.30;1.67;;;;;;;;;;6183834;23;20233;-89
2021/07/06 21:29:30;;;;;;;7.28;1.60;;;;;;;;;;6184736;23;20155;-90
2021/07/06 21:32:35;;;;;;;2.15;1.30;;;;;;;;;;6185030;23;20175;-89
2021/07/06 21:35:43;;;;;;;4.35;1.08;;;;;;;;;;6184797;23;20168;-88
2021/07/06 21:38:48;;;;;;;3.55;1.20;;;;;;;;;;6184164;22;20244;-89
2021/07/06 21:41:55;;;;;;;1.83;1.33;;;;;;;;;;6184625;23;20215;-89
2021/07/06 21:45:02;;;;;;;3.75;1.45;;;;;;;;;;6186259;23;20164;-87
2021/07/06 21:48:08;;;;;;;3.95;1.48;;;;;;;;;;6184949;23;20160;-88
2021/07/06 21:51:15;;;;;;;1.67;1.20;;;;;;;;;;6184868;23;20199;-88
2021/07/06 21:54:20;;;;;;;1.58;1.00;;;;;;;;;;6183645;23;20168;-89
2021/07/06 21:57:29;;;;;;;1.08;0.90;;;;;;;;;;6181075;23;20195;-89
2021/07/06 22:00:34;;;;;;;0.90;0.80;;;;;;;;;;6180082;23;20167;-89
2021/07/06 22:03:39;;;;;;;2.20;0.60;;;;;;;;;;6178104;23;20219;-89
2021/07/06 22:06:45;;;;;;;4.20;1.00;;;;;;;;;;6179003;23;20258;-89
2021/07/06 22:09:50;;;;;;;0.90;0.80;;;;;;;;;;6178894;23;20199;-89
2021/07/06 22:12:59;;;;;;;2.42;0.85;;;;;;;;;;6178848;23;20285;-88
2021/07/06 22:16:04;;;;;;;1.38;0.88;;;;;;;;;;6178844;23;20160;-89
2021/07/06 22:19:09;;;;;;;0.93;0.70;;;;;;;;;;6178411;23;20167;-89
2021/07/06 22:22:14;;;;;;;1.95;0.70;;;;;;;;;;6179373;23;20184;-90